Time;durP1;ratioP1;P1;durP2;ratioP2;P2;SDS_P1;SDS_P2;PMS_P1;PMS_P2;Temp;Humidity;BMP_temperature;BMP_pressure;BME280_temperature;BME280_humidity;BME280_pressure;Samples;Min_cycle;Max_cycle;Signal;HPM_P1;HPM_P2
2021/08/15 00:01:18;;;;;;;11.13;6.22;;;;;;;;;;5073220;28;21265;-47
2021/08/15 00:03:43;;;;;;;28.15;7.35;;;;;;;;;;5074608;28;20040;-48
2021/08/15 00:06:08;;;;;;;30.25;8.90;;;;;;;;;;5075565;28;20031;-48
2021/08/15 00:08:34;;;;;;;11.25;6.22;;;;;;;;;;5076427;28;20024;-47
2021/08/15 00:11:01;;;;;;;13.98;6.53;;;;;;;;;;5072957;28;20495;-48
2021/08/15 00:13:27;;;;;;;20.60;6.22;;;;;;;;;;5074411;28;20103;-47
2021/08/15 00:15:52;;;;;;;8.75;5.57;;;;;;;;;;5078885;28;20123;-48
2021/08/15 00:18:17;;;;;;;15.80;6.78;;;;;;;;;;5078981;28;20463;-47
2021/08/15 00:20:43;;;;;;;17.60;7.05;;;;;;;;;;5071748;28;20021;-48
2021/08/15 00:23:08;;;;;;;36.55;9.40;;;;;;;;;;5073768;28;20057;-47
2021/08/15 00:25:34;;;;;;;22.85;7.55;;;;;;;;;;5074857;28;20043;-49
2021/08/15 00:27:59;;;;;;;17.45;6.22;;;;;;;;;;5072049;28;20020;-48
2021/08/15 00:30:24;;;;;;;19.52;6.28;;;;;;;;;;5073148;28;20032;-49
2021/08/15 00:32:50;;;;;;;19.10;7.85;;;;;;;;;;5069956;28;20029;-49
2021/08/15 00:35:15;;;;;;;17.60;6.28;;;;;;;;;;5069829;28;20386;-48
2021/08/15 00:37:41;;;;;;;15.13;7.05;;;;;;;;;;5072657;28;20043;-45
2021/08/15 00:40:06;;;;;;;13.07;6.32;;;;;;;;;;5074807;28;20108;-48
2021/08/15 00:42:32;;;;;;;13.93;7.15;;;;;;;;;;5072471;28;20532;-48
2021/08/15 00:44:57;;;;;;;24.73;7.10;;;;;;;;;;5072420;28;20020;-47
2021/08/15 00:47:23;;;;;;;12.25;7.88;;;;;;;;;;5071306;28;20462;-48
2021/08/15 00:49:48;;;;;;;11.85;6.22;;;;;;;;;;5074691;28;20402;-47
2021/08/15 00:52:13;;;;;;;15.32;6.70;;;;;;;;;;5073876;28;20063;-48
2021/08/15 00:54:38;;;;;;;14.70;7.85;;;;;;;;;;5073275;28;20017;-47
2021/08/15 00:57:05;;;;;;;12.43;7.28;;;;;;;;;;5073679;28;20086;-46
2021/08/15 00:59:30;;;;;;;12.60;7.22;;;;;;;;;;5074540;28;20039;-48
2021/08/15 01:01:56;;;;;;;10.15;6.25;;;;;;;;;;5071857;28;20056;-51
2021/08/15 01:04:22;;;;;;;18.75;6.15;;;;;;;;;;5071938;28;20039;-46
2021/08/15 01:06:51;;;;;;;13.95;6.70;;;;;;;;;;5067447;28;20028;-47
2021/08/15 01:09:19;;;;;;;18.40;6.28;;;;;;;;;;5073314;28;20019;-49
2021/08/15 01:11:45;;;;;;;13.25;6.50;;;;;;;;;;5075093;28;20029;-49
2021/08/15 01:14:11;;;;;;;46.22;9.20;;;;;;;;;;5072656;28;20024;-50
2021/08/15 01:16:37;;;;;;;15.98;7.68;;;;;;;;;;5078047;28;20020;-51
2021/08/15 01:19:03;;;;;;;22.00;8.93;;;;;;;;;;5072660;28;20056;-46
2021/08/15 01:21:28;;;;;;;24.35;7.90;;;;;;;;;;5077373;28;20052;-51
2021/08/15 01:23:53;;;;;;;32.88;8.20;;;;;;;;;;5071412;28;20021;-49
2021/08/15 01:26:20;;;;;;;17.05;5.63;;;;;;;;;;5073818;28;20459;-50
2021/08/15 01:28:45;;;;;;;11.48;6.25;;;;;;;;;;5070482;28;20031;-47
2021/08/15 01:31:11;;;;;;;15.35;8.13;;;;;;;;;;5080784;28;20046;-49
2021/08/15 01:33:39;;;;;;;12.68;6.07;;;;;;;;;;5074120;28;20107;-46
2021/08/15 01:36:05;;;;;;;14.88;7.65;;;;;;;;;;5079585;28;20055;-47
2021/08/15 01:38:31;;;;;;;15.50;5.72;;;;;;;;;;5078825;28;20468;-51
2021/08/15 01:40:56;;;;;;;30.15;9.02;;;;;;;;;;5073728;28;20034;-52
2021/08/15 01:43:22;;;;;;;18.00;6.45;;;;;;;;;;5075968;28;20394;-51
2021/08/15 01:45:48;;;;;;;23.02;6.70;;;;;;;;;;5075745;28;20033;-50
2021/08/15 01:48:13;;;;;;;11.13;5.07;;;;;;;;;;5075541;28;20016;-51
2021/08/15 01:50:38;;;;;;;16.83;7.63;;;;;;;;;;5076014;28;20072;-52
2021/08/15 01:53:08;;;;;;;15.80;7.78;;;;;;;;;;5077901;28;20055;-52
2021/08/15 01:55:33;;;;;;;16.37;7.23;;;;;;;;;;5074378;28;20050;-48
2021/08/15 01:57:59;;;;;;;9.43;6.63;;;;;;;;;;5076813;28;20131;-47
2021/08/15 02:00:24;;;;;;;23.42;6.15;;;;;;;;;;5073851;28;20029;-49
2021/08/15 02:02:49;;;;;;;11.15;6.38;;;;;;;;;;5075766;28;20799;-48
2021/08/15 02:05:21;;;;;;;26.10;8.65;;;;;;;;;;5076246;28;20163;-50
2021/08/15 02:07:46;;;;;;;25.92;6.60;;;;;;;;;;5075059;28;20377;-49
2021/08/15 02:10:15;;;;;;;18.50;7.80;;;;;;;;;;5076766;28;20027;-52
2021/08/15 02:12:40;;;;;;;14.57;6.57;;;;;;;;;;5077878;28;20391;-47
2021/08/15 02:15:06;;;;;;;21.00;7.00;;;;;;;;;;5075809;28;20012;-49
2021/08/15 02:17:31;;;;;;;17.73;7.20;;;;;;;;;;5074571;28;20019;-52
2021/08/15 02:19:56;;;;;;;11.05;6.68;;;;;;;;;;5077064;28;20093;-52
2021/08/15 02:22:22;;;;;;;23.70;7.47;;;;;;;;;;5075326;28;20044;-52
2021/08/15 02:24:47;;;;;;;20.10;6.10;;;;;;;;;;5073824;28;20079;-48
2021/08/15 02:27:13;;;;;;;24.13;8.57;;;;;;;;;;5075058;28;20019;-52
2021/08/15 02:29:38;;;;;;;16.08;6.47;;;;;;;;;;5075552;28;20028;-52
2021/08/15 02:32:03;;;;;;;15.25;6.32;;;;;;;;;;5076409;28;20031;-49
2021/08/15 02:34:29;;;;;;;16.55;6.22;;;;;;;;;;5075263;28;20020;-50
2021/08/15 02:36:54;;;;;;;20.73;8.70;;;;;;;;;;5070344;28;20054;-52
2021/08/15 02:39:19;;;;;;;22.08;9.05;;;;;;;;;;5077134;28;20031;-49
2021/08/15 02:41:45;;;;;;;12.60;6.40;;;;;;;;;;5075980;28;20826;-51
2021/08/15 02:44:10;;;;;;;10.85;7.25;;;;;;;;;;5075914;28;20433;-48
2021/08/15 02:46:35;;;;;;;14.43;6.20;;;;;;;;;;5071033;28;20024;-51
2021/08/15 02:49:01;;;;;;;16.83;5.88;;;;;;;;;;5065986;28;20017;-51
2021/08/15 02:51:26;;;;;;;7.18;5.35;;;;;;;;;;5071128;28;20826;-52
2021/08/15 02:53:52;;;;;;;15.90;7.18;;;;;;;;;;5069488;28;20542;-47
2021/08/15 02:56:18;;;;;;;15.52;7.28;;;;;;;;;;5075455;28;20027;-51
2021/08/15 02:58:43;;;;;;;18.67;7.47;;;;;;;;;;5078408;28;20408;-51
2021/08/15 03:01:08;;;;;;;13.93;7.35;;;;;;;;;;5074451;28;20016;-52
2021/08/15 03:03:33;;;;;;;22.08;9.00;;;;;;;;;;5078738;28;20063;-50
2021/08/15 03:05:59;;;;;;;27.50;7.18;;;;;;;;;;5072763;28;20507;-47
2021/08/15 03:08:24;;;;;;;21.98;7.40;;;;;;;;;;5074145;28;20028;-52
2021/08/15 03:10:49;;;;;;;20.27;7.20;;;;;;;;;;5070741;28;20020;-48
2021/08/15 03:13:14;;;;;;;27.48;7.75;;;;;;;;;;5073535;28;20605;-49
2021/08/15 03:15:40;;;;;;;10.88;6.40;;;;;;;;;;5071523;28;20435;-51
2021/08/15 03:18:05;;;;;;;34.00;8.40;;;;;;;;;;5076880;28;20064;-45
2021/08/15 03:20:31;;;;;;;21.38;9.07;;;;;;;;;;5077110;28;20016;-52
2021/08/15 03:22:56;;;;;;;11.57;6.47;;;;;;;;;;5074638;28;20507;-51
2021/08/15 03:25:21;;;;;;;16.85;7.57;;;;;;;;;;5077681;28;20067;-52
2021/08/15 03:27:47;;;;;;;22.58;7.00;;;;;;;;;;5073912;28;20028;-50
2021/08/15 03:30:12;;;;;;;26.58;7.57;;;;;;;;;;5075687;28;20051;-50
2021/08/15 03:32:37;;;;;;;12.45;7.00;;;;;;;;;;5074380;28;20078;-49
2021/08/15 03:35:03;;;;;;;20.85;6.20;;;;;;;;;;5073652;28;20063;-51
2021/08/15 03:37:28;;;;;;;11.35;6.18;;;;;;;;;;5075390;28;20026;-51
2021/08/15 03:39:54;;;;;;;17.83;6.95;;;;;;;;;;5074671;28;20488;-47
2021/08/15 03:42:19;;;;;;;27.15;6.38;;;;;;;;;;5071008;28;20031;-52
2021/08/15 03:44:44;;;;;;;29.70;9.40;;;;;;;;;;5075565;28;20020;-49
2021/08/15 03:47:09;;;;;;;9.70;5.75;;;;;;;;;;5075748;28;20378;-46
2021/08/15 03:49:35;;;;;;;25.05;8.05;;;;;;;;;;5074315;28;20332;-48
2021/08/15 03:52:00;;;;;;;27.25;7.60;;;;;;;;;;5074950;28;20414;-48
2021/08/15 03:54:26;;;;;;;19.30;6.65;;;;;;;;;;5073361;28;20020;-51
2021/08/15 03:56:52;;;;;;;21.70;8.10;;;;;;;;;;5068933;28;20032;-49
2021/08/15 03:59:17;;;;;;;11.23;7.43;;;;;;;;;;5076767;28;20019;-46
2021/08/15 04:01:43;;;;;;;17.33;6.38;;;;;;;;;;5075785;28;20048;-45
2021/08/15 04:04:08;;;;;;;16.42;7.60;;;;;;;;;;5072165;28;20031;-49
2021/08/15 04:06:34;;;;;;;19.67;5.47;;;;;;;;;;5073863;28;20487;-47
2021/08/15 04:09:01;;;;;;;18.15;7.03;;;;;;;;;;5071516;28;20024;-45
2021/08/15 04:11:26;;;;;;;21.05;6.30;;;;;;;;;;5072517;28;20028;-50
2021/08/15 04:13:52;;;;;;;17.95;7.63;;;;;;;;;;5079501;28;20031;-49
2021/08/15 04:16:17;;;;;;;26.95;8.98;;;;;;;;;;5072542;28;20541;-46
2021/08/15 04:18:42;;;;;;;15.73;7.05;;;;;;;;;;5074571;28;20017;-49
2021/08/15 04:21:07;;;;;;;13.48;5.68;;;;;;;;;;5075360;28;20372;-50
2021/08/15 04:23:33;;;;;;;16.42;7.32;;;;;;;;;;5071064;28;20052;-50
2021/08/15 04:25:58;;;;;;;15.15;5.43;;;;;;;;;;5075661;28;20107;-44
2021/08/15 04:28:24;;;;;;;18.13;8.20;;;;;;;;;;5076004;28;20124;-51
2021/08/15 04:30:50;;;;;;;10.63;6.32;;;;;;;;;;5074409;28;20016;-50
2021/08/15 04:33:18;;;;;;;12.82;6.13;;;;;;;;;;5071745;28;20031;-50
2021/08/15 04:35:43;;;;;;;18.70;8.55;;;;;;;;;;5073071;28;20112;-47
2021/08/15 04:38:08;;;;;;;21.95;7.68;;;;;;;;;;5077480;28;20051;-46
2021/08/15 04:40:34;;;;;;;18.38;7.63;;;;;;;;;;5073666;28;20029;-46
2021/08/15 04:42:59;;;;;;;10.50;6.53;;;;;;;;;;5076201;28;20058;-47
2021/08/15 04:45:24;;;;;;;21.73;8.15;;;;;;;;;;5072564;28;20048;-48
2021/08/15 04:47:50;;;;;;;27.48;8.15;;;;;;;;;;5070761;28;20020;-48
2021/08/15 04:50:15;;;;;;;19.50;8.10;;;;;;;;;;5076347;28;20025;-48
2021/08/15 04:52:40;;;;;;;14.05;6.32;;;;;;;;;;5071228;28;20017;-49
2021/08/15 04:55:06;;;;;;;20.20;7.88;;;;;;;;;;5070357;28;20016;-46
2021/08/15 04:57:31;;;;;;;9.48;6.43;;;;;;;;;;5069700;28;20376;-50
2021/08/15 04:59:57;;;;;;;9.40;6.53;;;;;;;;;;5072961;28;20107;-46
2021/08/15 05:02:22;;;;;;;17.55;6.80;;;;;;;;;;5074732;28;20087;-47
2021/08/15 05:04:47;;;;;;;16.70;7.95;;;;;;;;;;5076367;28;20025;-46
2021/08/15 05:07:12;;;;;;;22.98;7.07;;;;;;;;;;5073055;28;20020;-50
2021/08/15 05:09:38;;;;;;;19.67;6.32;;;;;;;;;;5072558;28;20042;-49
2021/08/15 05:12:03;;;;;;;17.83;10.65;;;;;;;;;;5074936;28;20464;-46
2021/08/15 05:14:28;;;;;;;16.30;7.20;;;;;;;;;;5073830;28;20017;-48
2021/08/15 05:16:54;;;;;;;19.98;9.20;;;;;;;;;;5074501;28;20493;-47
2021/08/15 05:19:19;;;;;;;16.10;8.15;;;;;;;;;;5073933;28;20531;-49
2021/08/15 05:21:44;;;;;;;9.38;5.43;;;;;;;;;;5073372;28;20077;-46
2021/08/15 05:24:09;;;;;;;21.27;10.02;;;;;;;;;;5074278;28;20029;-48
2021/08/15 05:26:35;;;;;;;15.23;7.43;;;;;;;;;;5074087;28;20024;-46
2021/08/15 05:29:00;;;;;;;24.50;8.00;;;;;;;;;;5074770;28;20095;-47
2021/08/15 05:31:25;;;;;;;26.02;7.45;;;;;;;;;;5072583;28;20498;-47
2021/08/15 05:33:51;;;;;;;9.02;5.75;;;;;;;;;;5072009;28;20016;-50
2021/08/15 05:36:17;;;;;;;17.67;7.15;;;;;;;;;;5066967;28;20032;-47
2021/08/15 05:38:42;;;;;;;11.88;7.68;;;;;;;;;;5074381;28;20464;-48
2021/08/15 05:41:07;;;;;;;34.20;8.50;;;;;;;;;;5066500;28;20493;-51
2021/08/15 05:43:33;;;;;;;12.73;6.68;;;;;;;;;;5064115;28;20017;-49
2021/08/15 05:45:58;;;;;;;21.73;6.53;;;;;;;;;;5075963;28;20021;-48
2021/08/15 05:48:23;;;;;;;10.98;8.25;;;;;;;;;;5072307;28;20020;-49
2021/08/15 05:50:48;;;;;;;23.80;8.73;;;;;;;;;;5072332;28;20025;-48
2021/08/15 05:53:14;;;;;;;12.93;5.75;;;;;;;;;;5071138;28;20114;-48
2021/08/15 05:55:39;;;;;;;21.40;7.60;;;;;;;;;;5072110;28;20036;-51
2021/08/15 05:58:04;;;;;;;22.88;5.90;;;;;;;;;;5075567;28;20012;-49
2021/08/15 06:00:30;;;;;;;17.40;6.38;;;;;;;;;;5074063;28;20028;-50
2021/08/15 06:02:55;;;;;;;23.35;8.05;;;;;;;;;;5068116;28;20048;-48
2021/08/15 06:05:20;;;;;;;16.75;7.57;;;;;;;;;;5074899;28;20203;-47
2021/08/15 06:07:45;;;;;;;23.02;7.82;;;;;;;;;;5077368;28;20380;-48
2021/08/15 06:10:11;;;;;;;16.80;7.05;;;;;;;;;;5076405;28;20031;-51
2021/08/15 06:12:37;;;;;;;16.00;4.90;;;;;;;;;;5077551;28;20016;-46
2021/08/15 06:15:07;;;;;;;21.80;9.20;;;;;;;;;;5075840;28;20063;-45
2021/08/15 06:17:32;;;;;;;21.88;8.65;;;;;;;;;;5079454;28;20040;-50
2021/08/15 06:19:58;;;;;;;15.77;7.53;;;;;;;;;;5073724;28;20029;-50
2021/08/15 06:22:24;;;;;;;20.52;8.68;;;;;;;;;;5071328;28;20569;-49
2021/08/15 06:24:49;;;;;;;19.27;7.78;;;;;;;;;;5073935;28;20029;-48
2021/08/15 06:27:14;;;;;;;15.45;7.53;;;;;;;;;;5074750;28;20069;-51
2021/08/15 06:29:40;;;;;;;27.05;7.57;;;;;;;;;;5072838;28;20028;-47
2021/08/15 06:32:05;;;;;;;21.65;8.65;;;;;;;;;;5077254;28;20020;-51
2021/08/15 06:34:31;;;;;;;10.52;6.97;;;;;;;;;;5074706;28;20531;-51
2021/08/15 06:36:56;;;;;;;21.75;7.85;;;;;;;;;;5076906;28;20536;-51
2021/08/15 06:39:22;;;;;;;24.70;6.72;;;;;;;;;;5075732;28;20490;-49
2021/08/15 06:41:47;;;;;;;12.07;7.50;;;;;;;;;;5074055;28;20032;-48
2021/08/15 06:44:12;;;;;;;24.25;9.70;;;;;;;;;;5075638;28;20020;-50
2021/08/15 06:46:38;;;;;;;12.05;6.30;;;;;;;;;;5072713;28;20024;-49
2021/08/15 06:49:03;;;;;;;16.88;8.40;;;;;;;;;;5074315;28;20016;-49
2021/08/15 06:51:28;;;;;;;18.02;7.70;;;;;;;;;;5076603;28;20446;-49
2021/08/15 06:53:54;;;;;;;16.63;7.75;;;;;;;;;;5074037;28;20020;-50
2021/08/15 06:56:19;;;;;;;10.57;6.70;;;;;;;;;;5071872;28;20103;-48
2021/08/15 06:58:44;;;;;;;25.13;8.15;;;;;;;;;;5075636;28;20079;-48
2021/08/15 07:01:09;;;;;;;31.02;10.48;;;;;;;;;;5077549;28;20093;-50
2021/08/15 07:03:35;;;;;;;17.80;9.95;;;;;;;;;;5072811;28;20130;-49
2021/08/15 07:06:00;;;;;;;20.08;8.23;;;;;;;;;;5075569;28;20020;-45
2021/08/15 07:08:26;;;;;;;10.95;7.32;;;;;;;;;;5073917;28;20147;-44
2021/08/15 07:10:51;;;;;;;13.00;7.63;;;;;;;;;;5070967;28;20060;-45
2021/08/15 07:13:19;;;;;;;17.00;7.00;;;;;;;;;;5075840;28;20075;-50
2021/08/15 07:15:45;;;;;;;17.02;7.93;;;;;;;;;;5069966;28;20047;-50
2021/08/15 07:18:11;;;;;;;29.40;8.65;;;;;;;;;;5075426;28;20471;-47
2021/08/15 07:20:36;;;;;;;27.83;6.95;;;;;;;;;;5076103;28;20559;-47
2021/08/15 07:23:02;;;;;;;25.67;7.07;;;;;;;;;;5071814;28;20036;-46
2021/08/15 07:25:30;;;;;;;9.50;5.10;;;;;;;;;;5077261;28;20039;-49
2021/08/15 07:27:57;;;;;;;12.73;4.55;;;;;;;;;;5068930;28;20012;-48
2021/08/15 07:30:22;;;;;;;18.83;6.78;;;;;;;;;;5072578;28;20070;-49
2021/08/15 07:32:49;;;;;;;14.32;8.68;;;;;;;;;;5073389;28;20084;-48
2021/08/15 07:35:14;;;;;;;12.55;6.65;;;;;;;;;;5073156;28;20107;-50
2021/08/15 07:37:39;;;;;;;17.38;7.93;;;;;;;;;;5074786;28;20151;-47
2021/08/15 07:40:05;;;;;;;19.42;8.07;;;;;;;;;;5075237;28;20031;-46
2021/08/15 07:42:30;;;;;;;24.10;7.40;;;;;;;;;;5067876;28;20072;-47
2021/08/15 07:44:55;;;;;;;20.63;7.53;;;;;;;;;;5066673;28;20081;-46
2021/08/15 07:47:21;;;;;;;26.42;7.82;;;;;;;;;;5070811;28;20027;-48
2021/08/15 07:49:46;;;;;;;19.98;5.07;;;;;;;;;;5074584;28;20043;-48
2021/08/15 07:52:11;;;;;;;12.10;5.05;;;;;;;;;;5073585;28;20111;-49
2021/08/15 07:54:37;;;;;;;18.17;6.10;;;;;;;;;;5073440;28;20506;-50
2021/08/15 07:57:02;;;;;;;13.25;6.85;;;;;;;;;;5068330;28;20025;-50
2021/08/15 07:59:28;;;;;;;19.80;6.65;;;;;;;;;;5070444;28;20052;-46
2021/08/15 08:01:53;;;;;;;15.05;9.40;;;;;;;;;;5069108;28;20044;-45
2021/08/15 08:04:18;;;;;;;8.80;6.18;;;;;;;;;;5072336;28;20028;-46
2021/08/15 08:06:44;;;;;;;24.63;7.57;;;;;;;;;;5071415;28;20025;-48
2021/08/15 08:09:09;;;;;;;10.68;5.05;;;;;;;;;;5072250;28;20040;-50
2021/08/15 08:11:35;;;;;;;13.07;5.93;;;;;;;;;;5071520;28;20039;-50
2021/08/15 08:14:00;;;;;;;13.60;7.65;;;;;;;;;;5069414;28;20020;-50
2021/08/15 08:16:25;;;;;;;39.65;8.95;;;;;;;;;;5070120;28;20063;-47
2021/08/15 08:18:51;;;;;;;22.98;6.45;;;;;;;;;;5068699;28;20050;-45
2021/08/15 08:21:17;;;;;;;21.50;6.88;;;;;;;;;;5068422;28;20177;-50
2021/08/15 08:23:43;;;;;;;23.45;7.03;;;;;;;;;;5070734;28;20731;-50
2021/08/15 08:26:08;;;;;;;20.60;6.25;;;;;;;;;;5067123;28;20419;-47
2021/08/15 08:28:33;;;;;;;13.75;5.78;;;;;;;;;;5071160;28;20031;-48
2021/08/15 08:30:59;;;;;;;10.90;4.50;;;;;;;;;;5065844;28;20024;-51
2021/08/15 08:33:24;;;;;;;11.82;6.45;;;;;;;;;;5066729;28;20052;-51
2021/08/15 08:35:50;;;;;;;22.75;6.72;;;;;;;;;;5069357;28;20032;-47
2021/08/15 08:38:15;;;;;;;14.10;5.82;;;;;;;;;;5071773;28;20036;-47
2021/08/15 08:40:42;;;;;;;13.90;5.15;;;;;;;;;;5071838;28;20020;-50
2021/08/15 08:43:07;;;;;;;13.13;5.35;;;;;;;;;;5067945;28;20066;-48
2021/08/15 08:45:36;;;;;;;12.98;5.65;;;;;;;;;;5073974;28;20520;-45
2021/08/15 08:48:02;;;;;;;20.45;4.15;;;;;;;;;;5070670;28;20341;-46
2021/08/15 08:50:27;;;;;;;9.77;4.78;;;;;;;;;;5068515;28;20502;-45
2021/08/15 08:52:53;;;;;;;10.68;4.28;;;;;;;;;;5067116;28;20391;-46
2021/08/15 08:55:18;;;;;;;11.63;6.63;;;;;;;;;;5068422;28;20027;-46
2021/08/15 08:57:44;;;;;;;9.75;4.20;;;;;;;;;;5070558;28;20054;-46
2021/08/15 09:00:09;;;;;;;11.60;6.18;;;;;;;;;;5071523;28;20108;-51
2021/08/15 09:02:35;;;;;;;9.30;4.40;;;;;;;;;;5071685;28;20053;-50
2021/08/15 09:05:01;;;;;;;17.50;5.20;;;;;;;;;;5073994;28;20452;-50
2021/08/15 09:07:31;;;;;;;11.35;5.35;;;;;;;;;;5069805;28;20033;-47
2021/08/15 09:09:57;;;;;;;23.02;5.70;;;;;;;;;;5062493;28;20028;-47
2021/08/15 09:12:35;;;;;;;6.45;3.40;;;;;;;;;;5069082;28;20070;-50
2021/08/15 09:15:07;;;;;;;12.52;5.88;;;;;;;;;;5075450;28;20012;-49
2021/08/15 09:17:34;;;;;;;17.52;8.40;;;;;;;;;;5066992;28;20021;-49
2021/08/15 09:20:00;;;;;;;19.00;5.25;;;;;;;;;;5073297;28;20507;-51
2021/08/15 09:22:27;;;;;;;8.38;4.03;;;;;;;;;;5073010;28;20039;-47
2021/08/15 09:24:55;;;;;;;16.17;5.82;;;;;;;;;;5072258;28;20035;-48
2021/08/15 09:27:28;;;;;;;8.93;4.47;;;;;;;;;;5071482;28;20024;-45
2021/08/15 09:30:12;;;;;;;8.75;5.30;;;;;;;;;;5070760;28;20025;-49
2021/08/15 09:32:42;;;;;;;12.13;2.50;;;;;;;;;;5068876;28;20022;-47
2021/08/15 09:35:08;;;;;;;11.18;4.45;;;;;;;;;;5072188;28;20025;-48
2021/08/15 09:37:34;;;;;;;15.73;6.03;;;;;;;;;;5070655;28;20029;-46
2021/08/15 09:39:59;;;;;;;24.80;8.15;;;;;;;;;;5079915;28;20453;-47
2021/08/15 09:42:41;;;;;;;25.55;4.28;;;;;;;;;;5077374;28;20033;-45
2021/08/15 09:45:07;;;;;;;22.05;7.90;;;;;;;;;;5072341;28;20028;-50
2021/08/15 09:47:32;;;;;;;11.52;3.53;;;;;;;;;;5076427;28;20025;-46
2021/08/15 09:49:58;;;;;;;6.03;3.50;;;;;;;;;;5076910;28;20379;-46
2021/08/15 09:52:36;;;;;;;13.35;7.30;;;;;;;;;;5080206;28;20032;-46
2021/08/15 09:55:02;;;;;;;10.85;8.23;;;;;;;;;;5075155;28;20103;-49
2021/08/15 09:57:31;;;;;;;14.82;5.35;;;;;;;;;;5075186;28;20442;-48
2021/08/15 09:59:57;;;;;;;9.27;4.15;;;;;;;;;;5075782;28;20032;-46
2021/08/15 10:02:22;;;;;;;15.32;5.25;;;;;;;;;;5076405;28;20450;-46
2021/08/15 10:04:48;;;;;;;14.10;4.45;;;;;;;;;;5075827;28;20024;-46
2021/08/15 10:07:13;;;;;;;9.85;4.13;;;;;;;;;;5078695;28;20016;-48
2021/08/15 10:09:39;;;;;;;8.23;4.82;;;;;;;;;;5077068;28;20024;-48
2021/08/15 10:12:04;;;;;;;13.30;4.93;;;;;;;;;;5073865;28;20198;-51
2021/08/15 10:14:30;;;;;;;16.88;6.65;;;;;;;;;;5075172;28;20044;-48
2021/08/15 10:17:03;;;;;;;8.23;3.75;;;;;;;;;;5075170;28;20033;-48
2021/08/15 10:19:31;;;;;;;6.72;3.97;;;;;;;;;;5075535;28;20464;-47
2021/08/15 10:21:57;;;;;;;10.60;3.33;;;;;;;;;;5078221;28;20028;-47
2021/08/15 10:24:23;;;;;;;17.45;6.95;;;;;;;;;;5078032;28;20036;-47
2021/08/15 10:26:49;;;;;;;23.30;9.23;;;;;;;;;;5078932;28;20027;-49
2021/08/15 10:29:33;;;;;;;10.32;5.13;;;;;;;;;;5068111;28;20066;-46
2021/08/15 10:32:07;;;;;;;5.40;3.75;;;;;;;;;;5077479;28;20179;-45
2021/08/15 10:34:51;;;;;;;26.30;5.32;;;;;;;;;;5076921;28;20419;-47
2021/08/15 10:37:23;;;;;;;4.60;2.72;;;;;;;;;;5071531;28;20044;-46
2021/08/15 10:39:48;;;;;;;7.30;3.53;;;;;;;;;;5075732;28;20027;-46
2021/08/15 10:42:33;;;;;;;10.68;5.45;;;;;;;;;;5074304;28;20017;-47
2021/08/15 10:45:00;;;;;;;7.75;3.08;;;;;;;;;;5070616;28;20046;-48
2021/08/15 10:47:25;;;;;;;5.90;3.47;;;;;;;;;;5074953;28;20029;-49
2021/08/15 10:49:55;;;;;;;5.88;3.15;;;;;;;;;;5073951;28;20012;-46
2021/08/15 10:52:28;;;;;;;8.63;3.30;;;;;;;;;;5075973;28;20103;-45
2021/08/15 10:54:59;;;;;;;14.93;3.47;;;;;;;;;;5079414;28;20035;-48
2021/08/15 10:57:34;;;;;;;23.80;4.00;;;;;;;;;;5073683;28;20129;-48
2021/08/15 10:59:59;;;;;;;2.35;1.27;;;;;;;;;;5073641;28;20101;-48
2021/08/15 11:02:31;;;;;;;10.98;3.10;;;;;;;;;;5076160;28;20521;-46
2021/08/15 11:04:57;;;;;;;10.57;2.40;;;;;;;;;;5075286;28;20677;-49
2021/08/15 11:07:32;;;;;;;9.93;3.45;;;;;;;;;;5077753;28;20375;-45
2021/08/15 11:09:57;;;;;;;5.13;3.13;;;;;;;;;;5075169;28;20009;-45
2021/08/15 11:12:23;;;;;;;13.68;5.68;;;;;;;;;;5077012;28;20137;-47
2021/08/15 11:14:52;;;;;;;21.08;6.97;;;;;;;;;;5076675;28;20025;-50
2021/08/15 11:17:18;;;;;;;4.63;1.57;;;;;;;;;;5075196;28;20156;-48
2021/08/15 11:19:43;;;;;;;28.20;5.43;;;;;;;;;;5075452;28;20103;-50
2021/08/15 11:22:10;;;;;;;13.20;5.00;;;;;;;;;;5073989;28;20028;-50
2021/08/15 11:24:35;;;;;;;16.58;6.20;;;;;;;;;;5066359;28;20032;-52
2021/08/15 11:27:01;;;;;;;6.67;4.37;;;;;;;;;;5070956;28;20024;-49
2021/08/15 11:29:26;;;;;;;16.15;4.93;;;;;;;;;;5069547;28;20268;-57
2021/08/15 11:31:53;;;;;;;6.75;4.03;;;;;;;;;;5067886;28;20024;-50
2021/08/15 11:34:18;;;;;;;8.75;5.32;;;;;;;;;;5067499;28;20490;-50
2021/08/15 11:36:53;;;;;;;17.55;5.20;;;;;;;;;;5075663;28;20032;-52
2021/08/15 11:39:18;;;;;;;12.63;4.68;;;;;;;;;;5068031;28;20075;-49
2021/08/15 11:41:43;;;;;;;21.05;5.40;;;;;;;;;;5069772;28;20024;-49
2021/08/15 11:44:09;;;;;;;21.90;6.87;;;;;;;;;;5073176;28;20028;-46
2021/08/15 11:46:34;;;;;;;8.97;5.07;;;;;;;;;;5068944;28;20636;-46
2021/08/15 11:48:59;;;;;;;6.33;3.77;;;;;;;;;;5072679;28;20241;-49
2021/08/15 11:51:24;;;;;;;10.43;3.60;;;;;;;;;;5073291;28;20723;-47
2021/08/15 11:53:50;;;;;;;9.27;4.73;;;;;;;;;;5072798;28;20244;-51
2021/08/15 11:56:16;;;;;;;6.93;4.18;;;;;;;;;;5068732;28;20935;-49
2021/08/15 11:58:45;;;;;;;9.68;4.38;;;;;;;;;;5072738;28;20039;-47
2021/08/15 12:01:11;;;;;;;11.33;2.53;;;;;;;;;;5065535;28;20021;-51
2021/08/15 12:03:36;;;;;;;9.60;5.15;;;;;;;;;;5066070;28;20284;-46
2021/08/15 12:06:02;;;;;;;13.07;4.35;;;;;;;;;;5071356;28;20034;-48
2021/08/15 12:08:35;;;;;;;7.95;4.15;;;;;;;;;;5070459;28;20474;-45
2021/08/15 12:11:00;;;;;;;16.63;6.30;;;;;;;;;;5069613;28;20048;-48
2021/08/15 12:13:29;;;;;;;7.25;4.88;;;;;;;;;;5070694;28;20455;-46
2021/08/15 12:16:07;;;;;;;11.68;5.15;;;;;;;;;;5070889;28;20029;-45
2021/08/15 12:18:37;;;;;;;11.15;4.57;;;;;;;;;;5071397;28;20024;-51
2021/08/15 12:21:15;;;;;;;10.10;4.25;;;;;;;;;;5070474;28;20033;-46
2021/08/15 12:23:56;;;;;;;19.35;6.43;;;;;;;;;;5073642;28;20028;-49
2021/08/15 12:26:24;;;;;;;11.20;5.00;;;;;;;;;;5070455;28;20028;-45
2021/08/15 12:28:53;;;;;;;5.68;2.63;;;;;;;;;;5069436;28;20016;-51
2021/08/15 12:31:22;;;;;;;12.48;5.68;;;;;;;;;;5067770;28;20491;-50
2021/08/15 12:33:48;;;;;;;6.68;4.13;;;;;;;;;;5068495;28;20020;-46
2021/08/15 12:36:23;;;;;;;17.15;5.38;;;;;;;;;;5071387;28;20031;-49
2021/08/15 12:38:49;;;;;;;16.50;4.28;;;;;;;;;;5071276;28;20032;-58
2021/08/15 12:41:43;;;;;;;22.52;3.50;;;;;;;;;;5072907;28;20748;-59
2021/08/15 12:44:10;;;;;;;8.25;2.97;;;;;;;;;;5062940;28;20028;-59
2021/08/15 12:46:35;;;;;;;6.38;3.25;;;;;;;;;;5067132;28;20089;-59
2021/08/15 12:49:21;;;;;;;17.08;3.33;;;;;;;;;;5072443;28;20017;-58
2021/08/15 12:51:47;;;;;;;7.43;3.95;;;;;;;;;;5076142;28;20020;-58
2021/08/15 12:54:13;;;;;;;15.02;3.45;;;;;;;;;;5068947;28;20087;-58
2021/08/15 12:56:38;;;;;;;15.27;5.50;;;;;;;;;;5073208;28;20028;-58
2021/08/15 12:59:04;;;;;;;5.63;4.25;;;;;;;;;;5071246;28;20115;-58
2021/08/15 13:01:29;;;;;;;7.65;3.13;;;;;;;;;;5069986;28;20491;-58
2021/08/15 13:03:54;;;;;;;24.80;6.05;;;;;;;;;;5069169;28;20024;-58
2021/08/15 13:06:24;;;;;;;10.50;5.82;;;;;;;;;;5068416;28;20542;-57
2021/08/15 13:08:50;;;;;;;;;;;;;;;;;;5072173;28;20036;-56
2021/08/15 13:11:15;;;;;;;5.25;4.05;;;;;;;;;;5073401;28;19916;-56
2021/08/15 13:13:40;;;;;;;19.38;4.18;;;;;;;;;;5073937;28;20165;-57
2021/08/15 13:16:05;;;;;;;11.68;5.22;;;;;;;;;;5076264;28;20036;-57
2021/08/15 13:18:31;;;;;;;11.30;4.53;;;;;;;;;;5071417;28;20498;-57
2021/08/15 13:20:56;;;;;;;14.88;4.43;;;;;;;;;;5074536;28;20775;-57
2021/08/15 13:23:21;;;;;;;12.40;6.35;;;;;;;;;;5079479;28;20107;-56
2021/08/15 13:25:49;;;;;;;15.30;5.70;;;;;;;;;;5073733;28;20550;-57
2021/08/15 13:28:17;;;;;;;4.57;2.28;;;;;;;;;;5072941;28;20048;-57
2021/08/15 13:30:43;;;;;;;14.40;5.80;;;;;;;;;;5076380;28;20060;-57
2021/08/15 13:33:08;;;;;;;9.68;4.38;;;;;;;;;;5075013;28;20050;-57
2021/08/15 13:35:33;;;;;;;13.57;3.63;;;;;;;;;;5073506;28;20136;-57
2021/08/15 13:37:59;;;;;;;5.80;2.60;;;;;;;;;;5077798;28;20241;-57
2021/08/15 13:40:24;;;;;;;7.57;4.30;;;;;;;;;;5075600;28;20583;-57
2021/08/15 13:42:50;;;;;;;18.05;7.18;;;;;;;;;;5073251;28;20047;-57
2021/08/15 13:45:15;;;;;;;5.38;4.60;;;;;;;;;;5074851;28;20059;-59
2021/08/15 13:47:42;;;;;;;12.23;4.20;;;;;;;;;;5074208;28;20446;-58
2021/08/15 13:50:09;;;;;;;12.77;6.22;;;;;;;;;;5074073;28;20028;-58
2021/08/15 13:52:34;;;;;;;7.57;3.33;;;;;;;;;;5075326;28;20514;-58
2021/08/15 13:54:59;;;;;;;15.95;5.90;;;;;;;;;;5073980;28;20032;-58
2021/08/15 13:57:24;;;;;;;9.52;3.88;;;;;;;;;;5077756;28;20489;-58
2021/08/15 13:59:51;;;;;;;9.13;5.20;;;;;;;;;;5075488;28;20032;-57
2021/08/15 14:02:18;;;;;;;18.92;8.15;;;;;;;;;;5069726;28;20079;-59
2021/08/15 14:04:43;;;;;;;12.23;4.72;;;;;;;;;;5063906;28;20032;-58
2021/08/15 14:07:08;;;;;;;15.85;7.00;;;;;;;;;;5075038;28;20029;-58
2021/08/15 14:09:33;;;;;;;14.03;4.50;;;;;;;;;;5072913;28;20024;-58
2021/08/15 14:11:59;;;;;;;7.20;3.25;;;;;;;;;;5073447;28;20256;-58
2021/08/15 14:14:24;;;;;;;11.52;4.38;;;;;;;;;;5074097;28;20525;-58
2021/08/15 14:16:50;;;;;;;11.15;3.15;;;;;;;;;;5071061;28;20062;-58
2021/08/15 14:19:15;;;;;;;13.38;5.18;;;;;;;;;;5069345;28;20093;-59
2021/08/15 14:21:40;;;;;;;9.57;5.00;;;;;;;;;;5073234;28;20491;-58
2021/08/15 14:24:06;;;;;;;18.65;8.10;;;;;;;;;;5070602;28;20318;-59
2021/08/15 14:26:31;;;;;;;4.50;2.42;;;;;;;;;;5073155;28;20294;-59
2021/08/15 14:28:57;;;;;;;8.20;4.05;;;;;;;;;;5074610;28;20150;-58